Rechercher aéroport 
image banner adimage banner adimage banner ad
image banner ad

CL03 - Airport Towers Nr 1

Situé à El Segundo, United States

ICAO - CL03, IATA -

Données fournies par Airmate  

Information générale

Coordonnées: N33°55'1" W118°23'42"
Élévation : 404 feet MSL.
Variation magnétique : 14° East
Voir autres Aéroports à California

Données opérationnelles

Special qualification required
Heure actuelle UTC:
Heure actuelle locale:
Météo à : KLAX - Los Angeles Intl ( 3 km )
METAR: KLAX 251253Z 24005KT 6SM BR FEW006 SCT013 18/17 A2996 RMK AO2 SLP144 T01830167 $
TAF: KLAX 251244Z 2512/2618 25006KT 6SM BR SCT012 OVC150 FM251800 25012KT P6SM FEW015 BKN120 FM260300 25007KT P6SM BKN012 OVC120 FM260900 VRB03KT P6SM VCSH OVC100
Voir NOTAMs / SUP AIP / TFR affectant cet aéroport [VIEW]
Fréquences de communication: [VIEW]

Pistes:

Coordonnées de l'aéroport

Adresse: El Segundo United States

Vue satellite de CL03